Aviation Digital Data Service (ADDS)

Output produced by METARs form (1554 UTC 29 July 2015)
found at http://aviationweather.gov/adds/metars/
 
KGMU 291132Z 2912/3012 09004KT 6SM BR SCT004 
     FM291400 00000KT P6SM SCT020 
     FM291630 18005KT P6SM VCSH BKN035 
     FM291900 16007KT P6SM VCSH BKN040 
     TEMPO 2919/2923 VRB10G20KT 4SM TSRA BKN030CB 
     FM300100 00000KT P6SM BKN050